createdAt,value
2024-02-27T00:01:24.982Z,27.03
2024-02-27T00:03:53.201Z,25.00
2024-02-27T00:06:21.347Z,26.20
2024-02-27T00:08:49.545Z,26.40
2024-02-27T00:11:19.687Z,25.15
2024-02-27T00:13:47.942Z,25.83
2024-02-27T00:16:17.372Z,27.55
2024-02-27T00:18:45.598Z,26.60
2024-02-27T00:21:13.810Z,28.80
2024-02-27T00:23:41.989Z,24.40
2024-02-27T00:26:10.164Z,25.38
2024-02-27T00:28:39.594Z,25.95
2024-02-27T00:31:07.832Z,25.77
2024-02-27T00:33:36.103Z,26.15
2024-02-27T00:36:04.456Z,25.20
2024-02-27T00:38:32.536Z,28.30
2024-02-27T00:41:00.774Z,24.00
2024-02-27T00:43:28.885Z,26.35
2024-02-27T00:45:58.250Z,25.05
2024-02-27T00:48:26.548Z,24.20
2024-02-27T00:50:54.703Z,23.92
2024-02-27T00:53:23.067Z,26.65
2024-02-27T00:55:51.283Z,24.73
2024-02-27T00:58:19.301Z,27.83
2024-02-27T01:00:47.619Z,25.77
2024-02-27T01:03:17.118Z,26.45
2024-02-27T01:05:45.273Z,27.38
2024-02-27T01:08:13.492Z,28.08
2024-02-27T01:10:41.584Z,26.98
2024-02-27T01:13:09.674Z,26.23
2024-02-27T01:15:37.910Z,27.38
2024-02-27T01:18:06.568Z,25.40
2024-02-27T01:20:36.167Z,25.25
2024-02-27T01:23:04.688Z,27.53
2024-02-27T01:25:32.764Z,26.83
2024-02-27T01:28:00.803Z,27.60
2024-02-27T01:30:28.795Z,25.02
2024-02-27T01:32:57.050Z,28.35
2024-02-27T01:35:25.386Z,29.33
2024-02-27T01:37:55.007Z,30.65
2024-02-27T01:40:23.048Z,28.60
2024-02-27T01:42:51.103Z,25.55
2024-02-27T01:45:23.362Z,26.75
2024-02-27T01:47:52.186Z,28.48
2024-02-27T01:50:21.187Z,26.23
2024-02-27T01:52:49.355Z,27.73
2024-02-27T01:55:20.086Z,27.05
2024-02-27T01:57:49.995Z,26.45
2024-02-27T02:00:19.890Z,26.47
2024-02-27T02:02:48.076Z,28.63
2024-02-27T02:05:16.130Z,24.80
2024-02-27T02:07:44.933Z,29.02
2024-02-27T02:10:13.666Z,25.42
2024-02-27T02:12:43.526Z,28.63
2024-02-27T02:15:11.768Z,25.40
2024-02-27T02:17:39.860Z,26.33
2024-02-27T02:20:09.650Z,24.02
2024-02-27T02:22:39.080Z,26.17
2024-02-27T02:25:12.566Z,26.65
2024-02-27T02:27:43.931Z,26.58
2024-02-27T02:30:12.780Z,24.48
2024-02-27T02:32:48.927Z,25.50
2024-02-27T02:35:17.421Z,25.10
2024-02-27T02:37:48.537Z,26.38
2024-02-27T02:40:17.457Z,23.63
2024-02-27T02:42:46.133Z,24.63
2024-02-27T02:45:14.885Z,28.30
2024-02-27T02:47:43.191Z,25.43
2024-02-27T02:50:12.956Z,28.67
2024-02-27T02:52:41.445Z,27.92
2024-02-27T02:55:11.072Z,24.88
2024-02-27T02:57:39.593Z,23.77
2024-02-27T03:00:09.257Z,28.20
2024-02-27T03:02:37.497Z,27.25
2024-02-27T03:05:06.404Z,26.63
2024-02-27T03:07:34.947Z,25.73
2024-02-27T03:10:04.524Z,25.85
2024-02-27T03:12:33.995Z,25.75
2024-02-27T03:15:02.236Z,25.85
2024-02-27T03:17:30.337Z,26.17
2024-02-27T03:19:58.573Z,27.70
2024-02-27T03:22:26.751Z,25.40
2024-02-27T03:24:54.775Z,27.57
2024-02-27T03:27:22.885Z,25.65
2024-02-27T03:29:52.870Z,26.98
2024-02-27T03:32:22.731Z,26.73
2024-02-27T03:34:51.010Z,27.02
2024-02-27T03:37:19.180Z,28.92
2024-02-27T03:39:47.245Z,27.40
2024-02-27T03:42:15.315Z,27.90
2024-02-27T03:44:46.796Z,27.17
2024-02-27T03:47:16.889Z,27.25
2024-02-27T03:49:45.239Z,24.92
2024-02-27T03:52:13.629Z,27.67
2024-02-27T03:54:41.785Z,27.47
2024-02-27T03:57:11.373Z,26.67
2024-02-27T03:59:39.678Z,26.65
2024-02-27T04:02:08.311Z,26.92
2024-02-27T04:04:37.766Z,26.50
2024-02-27T04:07:06.139Z,25.70
2024-02-27T04:09:34.293Z,25.48
2024-02-27T04:12:07.640Z,28.93
2024-02-27T04:14:35.693Z,27.13
2024-02-27T04:17:03.810Z,28.13
2024-02-27T04:19:32.006Z,26.73
2024-02-27T04:22:01.539Z,28.75
2024-02-27T04:24:29.828Z,26.50
2024-02-27T04:26:57.982Z,27.60
2024-02-27T04:29:26.069Z,25.88
2024-02-27T04:31:54.149Z,28.60
2024-02-27T04:34:22.330Z,24.85
2024-02-27T04:36:50.404Z,25.15
2024-02-27T04:39:20.030Z,27.10
2024-02-27T04:41:48.488Z,30.48
2024-02-27T04:44:16.621Z,24.92
2024-02-27T04:46:44.666Z,28.42
2024-02-27T04:49:12.799Z,29.02
2024-02-27T04:51:41.641Z,28.40
2024-02-27T04:54:09.687Z,28.47
2024-02-27T04:56:42.918Z,27.75
2024-02-27T04:59:11.132Z,27.30
2024-02-27T05:01:39.778Z,29.02
2024-02-27T05:04:07.879Z,27.15
2024-02-27T05:06:36.031Z,26.00
2024-02-27T05:09:05.441Z,28.50
2024-02-27T05:11:33.539Z,28.00
2024-02-27T05:14:03.227Z,26.40
2024-02-27T05:16:31.531Z,27.98
2024-02-27T05:18:59.749Z,28.65
2024-02-27T05:21:29.369Z,30.17
2024-02-27T05:23:57.572Z,30.42
2024-02-27T05:26:26.008Z,30.65
2024-02-27T05:28:54.103Z,28.27
2024-02-27T05:31:26.059Z,30.45
2024-02-27T05:33:54.579Z,27.98
2024-02-27T05:36:23.324Z,24.63
2024-02-27T05:38:52.431Z,26.27
2024-02-27T05:41:20.564Z,29.98
2024-02-27T05:43:48.830Z,28.80
2024-02-27T05:46:17.261Z,29.27
2024-02-27T05:48:46.809Z,31.20
2024-02-27T05:51:15.023Z,28.55
2024-02-27T05:53:44.151Z,27.00
2024-02-27T05:56:12.213Z,30.58
2024-02-27T05:58:40.228Z,27.48
2024-02-27T06:01:08.632Z,29.63
2024-02-27T06:03:37.212Z,29.70
2024-02-27T06:06:07.949Z,29.23
2024-02-27T06:08:36.103Z,32.33
2024-02-27T06:11:04.221Z,28.37
2024-02-27T06:13:32.334Z,29.38
2024-02-27T06:16:02.295Z,32.70
2024-02-27T06:18:30.442Z,32.35
2024-02-27T06:21:16.084Z,31.65
2024-02-27T06:23:46.224Z,33.40
2024-02-27T06:26:15.025Z,32.13
2024-02-27T06:28:44.069Z,28.85
2024-02-27T06:31:12.488Z,30.15
2024-02-27T06:33:40.815Z,34.50
2024-02-27T06:36:09.389Z,31.00
2024-02-27T06:38:37.480Z,30.15
2024-02-27T06:41:07.026Z,29.48
2024-02-27T06:43:35.889Z,28.30
2024-02-27T06:46:04.577Z,29.42
2024-02-27T06:48:32.786Z,29.63
2024-02-27T06:51:01.573Z,31.13
2024-02-27T06:53:29.717Z,32.17
2024-02-27T06:55:57.719Z,28.23
2024-02-27T06:58:27.153Z,33.05
2024-02-27T07:00:55.317Z,31.10
2024-02-27T07:03:23.963Z,31.43
2024-02-27T07:05:53.920Z,30.23
2024-02-27T07:08:22.496Z,29.23
2024-02-27T07:10:50.630Z,31.85
2024-02-27T07:13:19.437Z,32.17
2024-02-27T07:15:49.286Z,31.00
2024-02-27T07:18:17.944Z,30.70
2024-02-27T07:20:46.562Z,30.40
2024-02-27T07:23:15.163Z,29.92
2024-02-27T07:25:43.374Z,28.73
2024-02-27T07:28:17.281Z,30.80
2024-02-27T07:30:53.526Z,32.63
2024-02-27T07:33:21.856Z,29.90
2024-02-27T07:35:51.125Z,28.30
2024-02-27T07:38:19.447Z,27.60
2024-02-27T07:40:47.554Z,28.77
2024-02-27T07:43:16.753Z,28.25
2024-02-27T07:45:45.153Z,28.15
2024-02-27T07:48:14.752Z,29.05
2024-02-27T07:50:42.893Z,28.08
2024-02-27T07:53:15.430Z,27.80
2024-02-27T07:55:43.515Z,25.88
2024-02-27T07:58:12.331Z,29.25
2024-02-27T08:00:40.513Z,31.45
2024-02-27T08:03:09.108Z,27.90
2024-02-27T08:05:38.666Z,30.38
2024-02-27T08:08:07.727Z,26.05
2024-02-27T08:10:35.959Z,24.25
2024-02-27T08:13:05.281Z,23.90
2024-02-27T08:15:33.673Z,24.23
2024-02-27T08:18:01.956Z,23.75
2024-02-27T08:20:30.108Z,21.27
2024-02-27T08:23:00.584Z,22.65
2024-02-27T08:25:29.703Z,23.55
2024-02-27T08:27:57.781Z,25.08
2024-02-27T08:30:26.638Z,22.20
2024-02-27T08:32:56.896Z,24.23
2024-02-27T08:35:25.208Z,24.60
2024-02-27T08:37:53.593Z,25.13
2024-02-27T08:40:23.027Z,22.40
2024-02-27T08:42:51.862Z,23.10
2024-02-27T08:45:20.561Z,21.20
2024-02-27T08:47:48.740Z,22.85
2024-02-27T08:50:16.854Z,24.45
2024-02-27T08:52:44.976Z,22.30
2024-02-27T08:55:13.082Z,21.75
2024-02-27T08:57:42.542Z,21.55
2024-02-27T09:00:13.702Z,23.40
2024-02-27T09:02:41.847Z,24.05
2024-02-27T09:05:10.520Z,22.75
2024-02-27T09:07:41.199Z,25.83
2024-02-27T09:10:10.791Z,22.15
2024-02-27T09:12:40.808Z,21.63
2024-02-27T09:15:12.591Z,23.33
2024-02-27T09:17:40.877Z,22.90
2024-02-27T09:20:11.089Z,22.88
2024-02-27T09:22:39.731Z,23.98
2024-02-27T09:25:08.548Z,25.60
2024-02-27T09:27:36.911Z,23.40
2024-02-27T09:30:06.002Z,21.85
2024-02-27T09:32:38.689Z,19.38
2024-02-27T09:35:08.616Z,21.27
2024-02-27T09:37:38.618Z,18.98
2024-02-27T09:40:08.198Z,18.10
2024-02-27T09:42:38.775Z,21.58
2024-02-27T09:45:09.044Z,17.98
2024-02-27T09:47:46.842Z,18.10
2024-02-27T09:50:19.401Z,17.15
2024-02-27T09:52:50.805Z,19.70
2024-02-27T09:55:20.584Z,19.10
2024-02-27T09:57:50.238Z,18.95
2024-02-27T10:00:19.753Z,18.42
2024-02-27T10:02:51.606Z,20.10
2024-02-27T10:05:21.661Z,18.50
2024-02-27T10:07:51.328Z,17.83
2024-02-27T10:10:20.194Z,16.23
2024-02-27T10:12:48.609Z,18.33
2024-02-27T10:15:16.854Z,17.63
2024-02-27T10:17:46.963Z,16.90
2024-02-27T10:20:21.057Z,16.50
2024-02-27T10:22:49.647Z,18.13
2024-02-27T10:25:20.043Z,16.48
2024-02-27T10:27:48.142Z,16.95
2024-02-27T10:30:16.847Z,17.15
2024-02-27T10:32:45.903Z,14.82
2024-02-27T10:35:15.730Z,14.20
2024-02-27T10:37:46.398Z,14.95
2024-02-27T10:40:14.696Z,15.20
2024-02-27T10:42:44.221Z,15.03
2024-02-27T10:45:13.437Z,15.57
2024-02-27T10:47:47.273Z,16.95
2024-02-27T10:50:17.680Z,14.30
2024-02-27T10:52:48.390Z,15.15
2024-02-27T10:55:20.161Z,13.93
2024-02-27T10:57:50.858Z,13.90
2024-02-27T11:00:20.123Z,14.05
2024-02-27T11:02:51.166Z,13.52
2024-02-27T11:05:21.242Z,12.90
2024-02-27T11:07:51.914Z,12.73
2024-02-27T11:10:20.670Z,14.05
2024-02-27T11:12:50.674Z,12.55
2024-02-27T11:15:21.138Z,12.50
2024-02-27T11:17:55.903Z,12.98
2024-02-27T11:20:24.439Z,13.80
2024-02-27T11:22:54.325Z,12.93
2024-02-27T11:25:23.504Z,13.20
2024-02-27T11:27:55.666Z,12.32
2024-02-27T11:30:26.008Z,13.45
2024-02-27T11:32:54.390Z,12.67
2024-02-27T11:35:24.000Z,14.52
2024-02-27T11:37:54.604Z,13.60
2024-02-27T11:40:47.274Z,13.38
2024-02-27T11:43:16.134Z,12.20
2024-02-27T11:45:44.422Z,12.50
2024-02-27T11:48:12.722Z,13.43
2024-02-27T11:50:50.019Z,15.20
2024-02-27T11:53:35.410Z,14.20
2024-02-27T11:56:04.113Z,15.27
2024-02-27T11:58:32.133Z,13.77
2024-02-27T12:01:00.779Z,12.90
2024-02-27T12:03:28.893Z,13.00
2024-02-27T12:06:05.383Z,13.10
2024-02-27T12:08:36.098Z,12.80
2024-02-27T12:11:04.389Z,13.90
2024-02-27T12:13:33.398Z,13.10
2024-02-27T12:16:02.113Z,13.98
2024-02-27T12:18:31.348Z,11.98
2024-02-27T12:21:01.746Z,12.85
2024-02-27T12:23:30.974Z,14.88
2024-02-27T12:26:01.577Z,14.93
2024-02-27T12:28:31.304Z,14.02
2024-02-27T12:31:00.353Z,12.93
2024-02-27T12:33:28.749Z,13.10
2024-02-27T12:35:56.923Z,12.32
2024-02-27T12:38:24.975Z,12.23
2024-02-27T12:40:53.058Z,12.68
2024-02-27T12:43:22.891Z,15.02
2024-02-27T12:45:53.638Z,14.63
2024-02-27T12:48:22.061Z,13.30
2024-02-27T12:50:50.271Z,14.90
2024-02-27T12:53:18.406Z,12.80
2024-02-27T12:55:47.579Z,13.85
2024-02-27T12:58:25.961Z,13.88
2024-02-27T13:00:56.695Z,14.57
2024-02-27T13:03:27.139Z,13.13
2024-02-27T13:05:55.481Z,13.38
2024-02-27T13:08:23.784Z,13.60
2024-02-27T13:13:22.376Z,11.57
2024-02-27T13:15:52.588Z,15.00
2024-02-27T13:18:20.868Z,12.05
2024-02-27T13:20:49.048Z,14.27
2024-02-27T13:23:24.976Z,14.02
2024-02-27T13:25:57.225Z,13.10
2024-02-27T13:28:27.499Z,13.40
2024-02-27T13:30:57.182Z,12.93
2024-02-27T13:33:26.246Z,13.07
2024-02-27T13:35:54.804Z,12.20
2024-02-27T13:38:22.847Z,12.82
2024-02-27T13:40:51.023Z,13.88
2024-02-27T13:43:19.131Z,14.50
2024-02-27T13:45:47.338Z,14.13
2024-02-27T13:48:17.185Z,13.53
2024-02-27T13:50:45.263Z,13.95
2024-02-27T13:53:15.142Z,13.13
2024-02-27T13:55:43.428Z,13.52
2024-02-27T13:58:11.573Z,14.35
2024-02-27T14:00:39.858Z,14.13
2024-02-27T14:03:10.764Z,13.07
2024-02-27T14:05:40.593Z,14.00
2024-02-27T14:08:09.361Z,17.67
2024-02-27T14:10:39.288Z,14.02
2024-02-27T14:13:07.729Z,15.27
2024-02-27T14:15:36.050Z,14.30
2024-02-27T14:18:04.446Z,13.20
2024-02-27T14:20:32.937Z,14.85
2024-02-27T14:23:02.395Z,17.83
2024-02-27T14:25:30.441Z,14.65
2024-02-27T14:27:58.996Z,14.65
2024-02-27T14:30:27.035Z,14.07
2024-02-27T14:32:55.621Z,13.43
2024-02-27T14:35:23.948Z,16.90
2024-02-27T14:37:52.045Z,13.55
2024-02-27T14:40:21.513Z,13.10
2024-02-27T14:42:52.772Z,13.02
2024-02-27T14:45:21.474Z,15.38
2024-02-27T14:47:49.611Z,13.93
2024-02-27T14:50:18.083Z,15.02
2024-02-27T14:52:46.141Z,13.25
2024-02-27T14:55:14.362Z,14.20
2024-02-27T14:57:43.800Z,13.30
2024-02-27T15:00:13.020Z,14.55
2024-02-27T15:02:41.863Z,13.13
2024-02-27T15:05:10.388Z,12.95
2024-02-27T15:07:38.850Z,13.30
2024-02-27T15:10:07.989Z,14.18
2024-02-27T15:12:36.146Z,14.20
2024-02-27T15:15:06.429Z,13.80
2024-02-27T15:17:34.711Z,12.82
2024-02-27T15:20:04.194Z,12.80
2024-02-27T15:22:32.594Z,15.57
2024-02-27T15:25:00.741Z,16.17
2024-02-27T15:27:28.852Z,13.27
2024-02-27T15:29:56.917Z,13.15
2024-02-27T15:32:27.463Z,13.98
2024-02-27T15:34:56.443Z,12.90
2024-02-27T15:37:24.702Z,12.35
2024-02-27T15:39:52.798Z,13.73
2024-02-27T15:42:20.875Z,15.32
2024-02-27T15:44:48.953Z,13.75
2024-02-27T15:47:17.035Z,14.45
2024-02-27T15:49:46.610Z,16.00
2024-02-27T15:52:14.745Z,16.10
2024-02-27T15:54:42.867Z,16.20
2024-02-27T15:57:10.949Z,15.30
2024-02-27T15:59:39.034Z,13.27
2024-02-27T16:02:07.637Z,13.82
2024-02-27T16:04:42.095Z,13.60
2024-02-27T16:07:15.181Z,16.60
2024-02-27T16:09:43.977Z,14.70
2024-02-27T16:12:19.725Z,16.60
2024-02-27T16:14:51.309Z,16.00
2024-02-27T16:17:19.452Z,14.80
2024-02-27T16:19:49.188Z,15.05
2024-02-27T16:22:19.658Z,16.60
2024-02-27T16:24:48.512Z,14.48
2024-02-27T16:27:17.265Z,14.43
2024-02-27T16:29:46.789Z,13.35
2024-02-27T16:32:14.924Z,13.82
2024-02-27T16:34:43.168Z,16.05
2024-02-27T16:37:12.373Z,16.40
2024-02-27T16:39:41.814Z,17.05
2024-02-27T16:42:10.677Z,17.52
2024-02-27T16:44:39.326Z,18.83
2024-02-27T16:47:07.428Z,16.77
2024-02-27T16:49:35.757Z,15.52
2024-02-27T16:52:03.996Z,17.75
2024-02-27T16:54:32.084Z,19.35
2024-02-27T16:57:01.520Z,16.40
2024-02-27T16:59:29.570Z,21.38
2024-02-27T17:01:57.614Z,19.42
2024-02-27T17:04:25.807Z,16.40
2024-02-27T17:06:54.033Z,19.80
2024-02-27T17:09:22.708Z,18.92
2024-02-27T17:11:50.941Z,18.65
2024-02-27T17:14:20.466Z,16.98
2024-02-27T17:16:48.511Z,20.52
2024-02-27T17:19:16.783Z,20.40
2024-02-27T17:21:45.045Z,19.58
2024-02-27T17:24:13.242Z,19.42
2024-02-27T17:26:41.347Z,18.58
2024-02-27T17:29:09.435Z,22.13
2024-02-27T17:31:38.935Z,20.58
2024-02-27T17:34:07.580Z,23.15
2024-02-27T17:36:39.373Z,21.90
2024-02-27T17:39:09.466Z,22.30
2024-02-27T17:41:37.583Z,21.58
2024-02-27T17:44:05.892Z,22.65
2024-02-27T17:46:35.607Z,23.75
2024-02-27T17:49:05.288Z,22.08
2024-02-27T17:51:33.510Z,22.00
2024-02-27T17:54:01.551Z,24.23
2024-02-27T17:56:29.811Z,25.00
2024-02-27T17:58:57.814Z,29.67
2024-02-27T18:01:25.902Z,31.92
2024-02-27T18:03:54.147Z,30.80
2024-02-27T18:06:23.667Z,29.15
2024-02-27T18:08:51.750Z,29.20
2024-02-27T18:11:19.849Z,30.80
2024-02-27T18:13:47.892Z,30.88
2024-02-27T18:16:16.246Z,32.05
2024-02-27T18:18:44.850Z,32.95
2024-02-27T18:21:13.957Z,30.45
2024-02-27T18:23:43.708Z,27.95
2024-02-27T18:26:13.201Z,32.17
2024-02-27T18:28:41.275Z,33.17
2024-02-27T18:31:10.360Z,35.33
2024-02-27T18:33:38.463Z,45.38
2024-02-27T18:36:07.061Z,42.17
2024-02-27T18:38:37.022Z,38.60
2024-02-27T18:41:06.704Z,33.28
2024-02-27T18:43:34.825Z,30.52
2024-02-27T18:46:02.887Z,49.88
2024-02-27T18:48:34.554Z,34.33
2024-02-27T18:51:03.829Z,34.53
2024-02-27T18:53:32.612Z,31.67
2024-02-27T18:56:00.753Z,31.42
2024-02-27T18:58:30.232Z,30.05
2024-02-27T19:00:59.049Z,29.83
2024-02-27T19:03:27.462Z,31.08
2024-02-27T19:05:55.712Z,31.83
2024-02-27T19:08:23.832Z,30.00
2024-02-27T19:10:52.208Z,31.27
2024-02-27T19:13:20.630Z,29.05
2024-02-27T19:15:50.305Z,31.63
2024-02-27T19:18:19.052Z,30.40
2024-02-27T19:20:47.555Z,33.15
2024-02-27T19:23:17.630Z,32.08
2024-02-27T19:25:45.679Z,32.90
2024-02-27T19:28:13.759Z,31.75
2024-02-27T19:30:42.259Z,33.20
2024-02-27T19:33:12.702Z,30.77
2024-02-27T19:35:40.805Z,29.03
2024-02-27T19:38:14.034Z,29.83
2024-02-27T19:40:46.915Z,34.38
2024-02-27T19:43:16.076Z,31.02
2024-02-27T19:45:44.656Z,33.70
2024-02-27T19:48:14.390Z,30.77
2024-02-27T19:50:42.522Z,31.40
2024-02-27T19:53:10.648Z,34.75
2024-02-27T19:55:39.100Z,33.00
2024-02-27T19:58:07.254Z,33.50
2024-02-27T20:00:37.796Z,37.55
2024-02-27T20:03:06.872Z,36.28
2024-02-27T20:05:37.645Z,35.95
2024-02-27T20:08:06.384Z,35.53
2024-02-27T20:10:34.882Z,35.45
2024-02-27T20:13:03.152Z,33.77
2024-02-27T20:15:31.800Z,35.17
2024-02-27T20:18:01.142Z,32.97
2024-02-27T20:20:30.344Z,38.63
2024-02-27T20:22:59.825Z,37.38
2024-02-27T20:25:27.833Z,40.55
2024-02-27T20:27:56.627Z,31.42
2024-02-27T20:30:26.632Z,37.83
2024-02-27T20:32:55.248Z,36.40
2024-02-27T20:35:23.386Z,37.25
2024-02-27T20:37:52.455Z,36.10
2024-02-27T20:40:23.794Z,40.42
2024-02-27T20:42:52.002Z,37.40
2024-02-27T20:45:21.435Z,37.10
2024-02-27T20:47:49.580Z,34.50
2024-02-27T20:50:17.609Z,35.90
2024-02-27T20:52:45.694Z,35.40
2024-02-27T20:55:15.491Z,33.25
2024-02-27T20:57:44.994Z,39.55
2024-02-27T21:00:13.879Z,42.40
2024-02-27T21:02:41.916Z,50.80
2024-02-27T21:05:10.280Z,49.73
2024-02-27T21:07:38.381Z,43.42
2024-02-27T21:10:07.547Z,39.60
2024-02-27T21:12:35.746Z,40.72
2024-02-27T21:15:05.823Z,38.65
2024-02-27T21:17:34.012Z,42.70
2024-02-27T21:20:02.532Z,44.03
2024-02-27T21:22:30.635Z,44.55
2024-02-27T21:24:58.706Z,43.58
2024-02-27T21:27:26.953Z,46.03
2024-02-27T21:29:55.061Z,44.78
2024-02-27T21:32:24.523Z,42.97
2024-02-27T21:34:52.621Z,40.13
2024-02-27T21:37:20.646Z,44.78
2024-02-27T21:39:51.843Z,48.88
2024-02-27T21:42:21.796Z,43.30
2024-02-27T21:44:50.093Z,44.77
2024-02-27T21:47:18.248Z,47.90
2024-02-27T21:49:47.711Z,42.10
2024-02-27T21:52:16.320Z,45.53
2024-02-27T21:54:45.101Z,44.78
2024-02-27T21:57:13.218Z,41.25
2024-02-27T21:59:43.157Z,38.92
2024-02-27T22:02:11.724Z,37.93
2024-02-27T22:04:40.362Z,38.40
2024-02-27T22:07:09.948Z,34.63
2024-02-27T22:09:38.145Z,33.72
2024-02-27T22:12:06.759Z,41.50
2024-02-27T22:14:34.850Z,35.63
2024-02-27T22:17:02.945Z,32.75
2024-02-27T22:19:31.277Z,32.78
2024-02-27T22:21:59.367Z,35.20
2024-02-27T22:24:28.825Z,37.17
2024-02-27T22:26:56.990Z,32.67
2024-02-27T22:29:25.074Z,33.97
2024-02-27T22:31:54.429Z,37.63
2024-02-27T22:34:23.128Z,31.75
2024-02-27T22:36:51.416Z,34.60
2024-02-27T22:39:19.633Z,35.43
2024-02-27T22:41:49.070Z,35.70
2024-02-27T22:44:17.110Z,34.35
2024-02-27T22:46:45.224Z,35.37
2024-02-27T22:49:13.371Z,34.50
2024-02-27T22:51:41.452Z,36.55
2024-02-27T22:54:09.661Z,34.40
2024-02-27T22:56:37.750Z,34.95
2024-02-27T22:59:07.409Z,35.67
2024-02-27T23:01:35.832Z,33.13
2024-02-27T23:04:04.007Z,34.95
2024-02-27T23:06:32.185Z,33.40
2024-02-27T23:09:00.287Z,34.13
2024-02-27T23:11:28.396Z,34.80
2024-02-27T23:13:56.533Z,35.50
2024-02-27T23:16:25.969Z,30.92
2024-02-27T23:18:54.201Z,33.70
2024-02-27T23:21:22.324Z,39.97
2024-02-27T23:23:50.442Z,35.00
2024-02-27T23:26:18.601Z,32.75
2024-02-27T23:28:47.091Z,34.03
2024-02-27T23:31:15.137Z,37.25
2024-02-27T23:33:44.638Z,33.83
2024-02-27T23:36:13.359Z,36.03
2024-02-27T23:38:41.441Z,34.08
2024-02-27T23:41:11.516Z,34.97
2024-02-27T23:43:41.755Z,32.88
2024-02-27T23:46:13.910Z,33.65
2024-02-27T23:48:42.010Z,35.60
2024-02-27T23:51:12.231Z,38.88
2024-02-27T23:53:40.307Z,34.20
2024-02-27T23:56:08.414Z,31.85
2024-02-27T23:58:37.500Z,33.50
